sensor_id;sensor_type;location;lat;lon;timestamp;pressure;altitude;pressure_sealevel;temperature;humidity
21664;BME280;10993;52.510;13.456;2023-11-21T00:02:50;103961.56;;;-146.93;100.00
21664;BME280;10993;52.510;13.456;2023-11-21T00:07:50;103698.81;;;-146.93;100.00
21664;BME280;10993;52.510;13.456;2023-11-21T00:12:52;102385.38;;;-146.93;100.00
21664;BME280;10993;52.510;13.456;2023-11-21T00:17:55;102385.38;;;-146.93;100.00
21664;BME280;10993;52.510;13.456;2023-11-21T00:22:55;103173.38;;;-146.93;100.00
21664;BME280;10993;52.510;13.456;2023-11-21T00:27:57;103173.38;;;-146.93;100.00
21664;BME280;10993;52.510;13.456;2023-11-21T00:32:57;103173.38;;;-146.93;100.00
21664;BME280;10993;52.510;13.456;2023-11-21T00:37:57;102385.38;;;-146.93;100.00
21664;BME280;10993;52.510;13.456;2023-11-21T00:42:59;101597.53;;;-146.93;100.00
21664;BME280;10993;52.510;13.456;2023-11-21T00:48:01;101597.53;;;-146.93;100.00
21664;BME280;10993;52.510;13.456;2023-11-21T00:53:01;100022.41;;;-146.93;100.00
21664;BME280;10993;52.510;13.456;2023-11-21T00:58:03;101072.41;;;-146.93;100.00
21664;BME280;10993;52.510;13.456;2023-11-21T01:03:04;101072.41;;;-146.93;100.00
21664;BME280;10993;52.510;13.456;2023-11-21T01:08:04;101072.41;;;-146.93;100.00
21664;BME280;10993;52.510;13.456;2023-11-21T01:13:07;101597.53;;;-146.93;100.00
21664;BME280;10993;52.510;13.456;2023-11-21T01:18:07;100022.41;;;-146.93;100.00
21664;BME280;10993;52.510;13.456;2023-11-21T01:23:08;100547.38;;;-146.93;100.00
21664;BME280;10993;52.510;13.456;2023-11-21T01:28:10;101334.97;;;-146.93;100.00
21664;BME280;10993;52.510;13.456;2023-11-21T01:33:10;100809.88;;;-146.93;100.00
21664;BME280;10993;52.510;13.456;2023-11-21T01:38:11;101597.53;;;-146.93;100.00
21664;BME280;10993;52.510;13.456;2023-11-21T01:43:12;100809.88;;;-146.93;100.00
21664;BME280;10993;52.510;13.456;2023-11-21T01:48:13;100547.38;;;-146.93;100.00
21664;BME280;10993;52.510;13.456;2023-11-21T01:53:14;98710.38;;;-146.93;100.00
21664;BME280;10993;52.510;13.456;2023-11-21T01:58:16;98972.72;;;-146.93;100.00
21664;BME280;10993;52.510;13.456;2023-11-21T02:03:16;98710.38;;;-146.93;100.00
21664;BME280;10993;52.510;13.456;2023-11-21T02:08:17;98448.00;;;-146.93;100.00
21664;BME280;10993;52.510;13.456;2023-11-21T02:13:20;97661.06;;;-146.93;100.00
21664;BME280;10993;52.510;13.456;2023-11-21T02:18:21;97661.06;;;-146.93;100.00
21664;BME280;10993;52.510;13.456;2023-11-21T02:23:23;96874.31;;;-146.93;100.00
21664;BME280;10993;52.510;13.456;2023-11-21T02:28:28;97661.06;;;-146.93;100.00
21664;BME280;10993;52.510;13.456;2023-11-21T02:33:29;97136.56;;;-146.93;100.00
21664;BME280;10993;52.510;13.456;2023-11-21T02:38:30;97398.81;;;-146.93;100.00
21664;BME280;10993;52.510;13.456;2023-11-21T02:43:31;97661.06;;;-146.93;100.00
21664;BME280;10993;52.510;13.456;2023-11-21T02:48:31;96612.09;;;-146.93;100.00
21664;BME280;10993;52.510;13.456;2023-11-21T02:53:33;95039.25;;;-146.93;100.00
21664;BME280;10993;52.510;13.456;2023-11-21T02:58:33;94777.16;;;-146.93;100.00
21664;BME280;10993;52.510;13.456;2023-11-21T03:03:33;95563.44;;;-146.93;100.00
21664;BME280;10993;52.510;13.456;2023-11-21T03:08:35;96349.91;;;-146.93;100.00
21664;BME280;10993;52.510;13.456;2023-11-21T03:13:35;97136.56;;;-146.93;100.00
21664;BME280;10993;52.510;13.456;2023-11-21T03:18:36;96612.09;;;-146.93;100.00
21664;BME280;10993;52.510;13.456;2023-11-21T03:23:38;94515.13;;;-146.93;100.00
21664;BME280;10993;52.510;13.456;2023-11-21T03:28:38;94253.09;;;-146.93;100.00
21664;BME280;10993;52.510;13.456;2023-11-21T03:33:39;93991.06;;;-146.93;100.00
21664;BME280;10993;52.510;13.456;2023-11-21T03:38:41;91372.00;;;-146.93;100.00
21664;BME280;10993;52.510;13.456;2023-11-21T03:43:41;90324.94;;;-146.93;100.00
21664;BME280;10993;52.510;13.456;2023-11-21T03:48:42;87970.19;;;-146.93;100.00
21664;BME280;10993;52.510;13.456;2023-11-21T03:53:43;87708.66;;;-146.93;100.00
21664;BME280;10993;52.510;13.456;2023-11-21T03:58:44;87447.13;;;-146.93;100.00
21664;BME280;10993;52.510;13.456;2023-11-21T04:03:44;85878.44;;;-146.93;99.69
21664;BME280;10993;52.510;13.456;2023-11-21T04:08:46;81959.78;;;-146.93;98.53
21664;BME280;10993;52.510;13.456;2023-11-21T04:13:46;80654.56;;;-146.93;98.24
21664;BME280;10993;52.510;13.456;2023-11-21T04:18:47;77784.81;;;-146.93;97.35
21664;BME280;10993;52.510;13.456;2023-11-21T04:23:48;77524.06;;;-146.93;97.16
21664;BME280;10993;52.510;13.456;2023-11-21T04:28:49;73148.97;;;-146.93;96.09
21664;BME280;10993;52.510;13.456;2023-11-21T04:33:50;67192.88;;;-146.93;94.46
21664;BME280;10993;52.510;13.456;2023-11-21T04:38:51;66065.84;;;-146.93;94.03
21664;BME280;10993;52.510;13.456;2023-11-21T04:43:52;65633.41;;;-146.93;93.75
21664;BME280;10993;52.510;13.456;2023-11-21T04:48:52;66017.09;;;-146.93;93.74
21664;BME280;10993;52.510;13.456;2023-11-21T04:53:54;66973.53;;;-146.93;94.08
21664;BME280;10993;52.510;13.456;2023-11-21T04:58:54;66366.34;;;-146.93;93.98
21664;BME280;10993;52.510;13.456;2023-11-21T05:03:54;64372.94;;;-146.93;93.02
21664;BME280;10993;52.510;13.456;2023-11-21T05:08:58;64448.03;;;-146.93;93.07
21664;BME280;10993;52.510;13.456;2023-11-21T05:13:59;63745.91;;;-146.93;92.69
21664;BME280;10993;52.510;13.456;2023-11-21T05:19:01;64636.75;;;-146.93;93.26
21664;BME280;10993;52.510;13.456;2023-11-21T05:24:04;64847.84;;;-146.93;93.40
21664;BME280;10993;52.510;13.456;2023-11-21T05:29:05;65263.94;;;-146.93;93.50
21664;BME280;10993;52.510;13.456;2023-11-21T05:34:05;64559.63;;;-146.93;93.12
21664;BME280;10993;52.510;13.456;2023-11-21T05:39:07;63756.06;;;-146.93;92.54
21664;BME280;10993;52.510;13.456;2023-11-21T05:44:07;63106.84;;;-146.93;92.21
21664;BME280;10993;52.510;13.456;2023-11-21T05:49:08;63129.16;;;-146.93;92.23
21664;BME280;10993;52.510;13.456;2023-11-21T05:54:10;62863.44;;;-146.93;92.01
21664;BME280;10993;52.510;13.456;2023-11-21T05:59:10;62285.38;;;-146.93;91.45
21664;BME280;10993;52.510;13.456;2023-11-21T06:04:11;62506.44;;;-146.93;91.73
21664;BME280;10993;52.510;13.456;2023-11-21T06:09:12;63991.44;;;-146.93;92.75
21664;BME280;10993;52.510;13.456;2023-11-21T06:14:13;65562.34;;;-146.93;93.75
21664;BME280;10993;52.510;13.456;2023-11-21T06:19:15;64894.50;;;-146.93;93.38
21664;BME280;10993;52.510;13.456;2023-11-21T06:24:16;64543.41;;;-146.93;93.07
21664;BME280;10993;52.510;13.456;2023-11-21T06:29:17;62587.56;;;-146.93;91.74
21664;BME280;10993;52.510;13.456;2023-11-21T06:34:18;62851.25;;;-146.93;92.09
21664;BME280;10993;52.510;13.456;2023-11-21T06:39:20;62910.09;;;-146.93;91.92
21664;BME280;10993;52.510;13.456;2023-11-21T06:44:22;62954.72;;;-146.93;91.87
21664;BME280;10993;52.510;13.456;2023-11-21T06:49:23;62490.22;;;-146.93;91.52
21664;BME280;10993;52.510;13.456;2023-11-21T06:54:26;62244.81;;;-146.93;91.47
21664;BME280;10993;52.510;13.456;2023-11-21T06:59:28;61644.56;;;-146.93;90.99
21664;BME280;10993;52.510;13.456;2023-11-21T07:04:29;62400.97;;;-146.93;91.50
21664;BME280;10993;52.510;13.456;2023-11-21T07:09:31;61715.53;;;-146.93;90.82
21664;BME280;10993;52.510;13.456;2023-11-21T07:14:31;61654.69;;;-146.93;90.91
21664;BME280;10993;52.510;13.456;2023-11-21T07:19:32;60930.88;;;-146.93;90.20
21664;BME280;10993;52.510;13.456;2023-11-21T07:24:33;60606.50;;;-146.93;89.75
21664;BME280;10993;52.510;13.456;2023-11-21T07:29:34;60900.47;;;-146.93;90.13
21664;BME280;10993;52.510;13.456;2023-11-21T07:34:34;60462.59;;;-146.93;89.40
21664;BME280;10993;52.510;13.456;2023-11-21T07:39:36;60634.91;;;-146.93;89.80
21664;BME280;10993;52.510;13.456;2023-11-21T07:44:42;60503.13;;;-146.93;89.96
21664;BME280;10993;52.510;13.456;2023-11-21T07:49:42;60896.41;;;-146.93;90.45
21664;BME280;10993;52.510;13.456;2023-11-21T07:54:45;60426.09;;;-146.93;89.64
21664;BME280;10993;52.510;13.456;2023-11-21T07:59:46;60505.16;;;-146.93;89.74
21664;BME280;10993;52.510;13.456;2023-11-21T08:04:46;59457.34;;;-146.93;87.63
21664;BME280;10993;52.510;13.456;2023-11-21T08:09:50;59639.72;;;-146.93;88.44
21664;BME280;10993;52.510;13.456;2023-11-21T08:14:51;59809.94;;;-146.93;88.70
21664;BME280;10993;52.510;13.456;2023-11-21T08:19:51;59651.88;;;-146.93;88.47
21664;BME280;10993;52.510;13.456;2023-11-21T08:24:54;60065.31;;;-146.93;89.20
21664;BME280;10993;52.510;13.456;2023-11-21T08:29:56;59720.78;;;-146.93;89.00
21664;BME280;10993;52.510;13.456;2023-11-21T08:34:57;59834.28;;;-146.93;88.84
21664;BME280;10993;52.510;13.456;2023-11-21T08:39:59;59664.03;;;-146.93;88.39
21664;BME280;10993;52.510;13.456;2023-11-21T08:45:00;59362.09;;;-146.93;88.13
21664;BME280;10993;52.510;13.456;2023-11-21T08:50:00;59921.41;;;-146.93;89.00
21664;BME280;10993;52.510;13.456;2023-11-21T08:55:02;59274.97;;;-146.93;87.37
21664;BME280;10993;52.510;13.456;2023-11-21T09:00:08;59414.78;;;-146.93;88.07
21664;BME280;10993;52.510;13.456;2023-11-21T09:05:13;59226.34;;;-146.93;87.38
21664;BME280;10993;52.510;13.456;2023-11-21T09:10:15;59621.47;;;-146.93;88.23
21664;BME280;10993;52.510;13.456;2023-11-21T09:15:16;59599.19;;;-146.93;88.16
21664;BME280;10993;52.510;13.456;2023-11-21T09:20:16;59830.22;;;-146.93;88.49
21664;BME280;10993;52.510;13.456;2023-11-21T09:25:18;60020.72;;;-146.93;89.27
21664;BME280;10993;52.510;13.456;2023-11-21T09:30:20;60049.09;;;-146.93;88.86
21664;BME280;10993;52.510;13.456;2023-11-21T09:35:20;59935.59;;;-146.93;88.61
21664;BME280;10993;52.510;13.456;2023-11-21T09:40:22;58894.03;;;-146.93;86.34
21664;BME280;10993;52.510;13.456;2023-11-21T09:45:25;58971.03;;;-146.93;86.72
21664;BME280;10993;52.510;13.456;2023-11-21T09:50:26;58598.25;;;-146.93;84.39
21664;BME280;10993;52.510;13.456;2023-11-21T09:55:28;58055.34;;;-146.93;83.44
21664;BME280;10993;52.510;13.456;2023-11-21T10:00:36;58118.13;;;-146.93;82.81
21664;BME280;10993;52.510;13.456;2023-11-21T10:05:36;58253.84;;;-146.93;84.11
21664;BME280;10993;52.510;13.456;2023-11-21T10:10:42;57937.88;;;-146.93;83.16
21664;BME280;10993;52.510;13.456;2023-11-21T10:15:49;58016.84;;;-146.93;82.33
21664;BME280;10993;52.510;13.456;2023-11-21T10:20:50;58083.69;;;-146.93;83.17
21664;BME280;10993;52.510;13.456;2023-11-21T10:25:55;58128.25;;;-146.93;83.49
21664;BME280;10993;52.510;13.456;2023-11-21T10:30:56;58553.69;;;-146.93;85.58
21664;BME280;10993;52.510;13.456;2023-11-21T10:35:57;58736.00;;;-146.93;86.26
21664;BME280;10993;52.510;13.456;2023-11-21T10:40:59;59161.50;;;-146.93;87.17
21664;BME280;10993;52.510;13.456;2023-11-21T10:45:59;58403.75;;;-146.93;84.62
21664;BME280;10993;52.510;13.456;2023-11-21T10:51:06;58517.22;;;-146.93;84.66
21664;BME280;10993;52.510;13.456;2023-11-21T10:56:13;58740.06;;;-146.93;85.36
21664;BME280;10993;52.510;13.456;2023-11-21T11:01:18;58590.13;;;-146.93;85.20
21664;BME280;10993;52.510;13.456;2023-11-21T11:06:19;58922.41;;;-146.93;84.66
21664;BME280;10993;52.510;13.456;2023-11-21T11:11:21;58292.34;;;-146.93;84.09
21664;BME280;10993;52.510;13.456;2023-11-21T11:16:22;58663.06;;;-146.93;85.85
21664;BME280;10993;52.510;13.456;2023-11-21T11:21:28;58748.16;;;-146.93;86.04
21664;BME280;10993;52.510;13.456;2023-11-21T11:26:43;58867.69;;;-146.93;86.76
21664;BME280;10993;52.510;13.456;2023-11-21T11:31:55;59481.66;;;-146.93;88.42
21664;BME280;10993;52.510;13.456;2023-11-21T11:37:02;60918.69;;;-146.93;91.01
21664;BME280;10993;52.510;13.456;2023-11-21T11:42:07;62119.06;;;-146.93;92.32
21664;BME280;10993;52.510;13.456;2023-11-21T11:47:13;61528.97;;;-146.93;91.43
21664;BME280;10993;52.510;13.456;2023-11-21T11:52:33;62413.16;;;-146.93;92.27
21664;BME280;10993;52.510;13.456;2023-11-21T11:57:35;62711.31;;;-146.93;92.69
21664;BME280;10993;52.510;13.456;2023-11-21T12:02:36;61573.59;;;-146.93;91.52
21664;BME280;10993;52.510;13.456;2023-11-21T12:07:48;61405.28;;;-146.93;91.52
21664;BME280;10993;52.510;13.456;2023-11-21T12:12:51;61508.69;;;-146.93;91.44
21664;BME280;10993;52.510;13.456;2023-11-21T12:17:52;61001.81;;;-146.93;90.77
21664;BME280;10993;52.510;13.456;2023-11-21T12:22:54;61210.66;;;-146.93;90.88
21664;BME280;10993;52.510;13.456;2023-11-21T12:27:56;61407.31;;;-146.93;91.48
21664;BME280;10993;52.510;13.456;2023-11-21T12:32:59;63705.34;;;-146.93;93.40
21664;BME280;10993;52.510;13.456;2023-11-21T12:38:00;65830.31;;;-146.93;94.95
21664;BME280;10993;52.510;13.456;2023-11-21T12:43:04;69746.81;;;-146.93;96.18
21664;BME280;10993;52.510;13.456;2023-11-21T12:48:05;70271.25;;;-146.93;96.24
21664;BME280;10993;52.510;13.456;2023-11-21T12:53:12;67576.75;;;-146.93;95.24
21664;BME280;10993;52.510;13.456;2023-11-21T12:58:14;68054.13;;;-146.93;95.19
21664;BME280;10993;52.510;13.456;2023-11-21T13:03:15;66945.09;;;-146.93;95.06
21664;BME280;10993;52.510;13.456;2023-11-21T13:08:26;72009.81;;;-146.93;96.65
21664;BME280;10993;52.510;13.456;2023-11-21T13:13:29;71568.47;;;-146.93;96.45
21664;BME280;10993;52.510;13.456;2023-11-21T13:18:29;69787.47;;;-146.93;95.83
21664;BME280;10993;52.510;13.456;2023-11-21T13:23:34;67052.72;;;-146.93;95.21
21664;BME280;10993;52.510;13.456;2023-11-21T13:28:37;69775.28;;;-146.93;96.09
21664;BME280;10993;52.510;13.456;2023-11-21T13:33:38;69929.75;;;-146.93;96.02
21664;BME280;10993;52.510;13.456;2023-11-21T13:38:38;68267.44;;;-146.93;95.88
21664;BME280;10993;52.510;13.456;2023-11-21T13:43:43;68381.22;;;-146.93;95.66
21664;BME280;10993;52.510;13.456;2023-11-21T13:48:50;64113.19;;;-146.93;94.08
21664;BME280;10993;52.510;13.456;2023-11-21T13:53:55;64880.31;;;-146.93;94.54
21664;BME280;10993;52.510;13.456;2023-11-21T13:58:57;65164.47;;;-146.93;94.78
21664;BME280;10993;52.510;13.456;2023-11-21T14:04:04;65708.50;;;-146.93;94.91
21664;BME280;10993;52.510;13.456;2023-11-21T14:09:20;66922.75;;;-146.93;95.37
21664;BME280;10993;52.510;13.456;2023-11-21T14:14:27;65515.66;;;-146.93;94.83
21664;BME280;10993;52.510;13.456;2023-11-21T14:19:30;64170.00;;;-146.93;94.34
21664;BME280;10993;52.510;13.456;2023-11-21T14:24:32;64178.13;;;-146.93;94.32
21664;BME280;10993;52.510;13.456;2023-11-21T14:29:34;63739.84;;;-146.93;94.03
21664;BME280;10993;52.510;13.456;2023-11-21T14:34:39;64855.94;;;-146.93;94.67
21664;BME280;10993;52.510;13.456;2023-11-21T14:39:40;66784.66;;;-146.93;95.56
21664;BME280;10993;52.510;13.456;2023-11-21T14:44:46;66321.66;;;-146.93;95.55
21664;BME280;10993;52.510;13.456;2023-11-21T14:49:46;68905.47;;;-146.93;96.50
21664;BME280;10993;52.510;13.456;2023-11-21T14:54:53;69527.31;;;-146.93;96.64
21664;BME280;10993;52.510;13.456;2023-11-21T15:00:16;67024.28;;;-146.93;95.84
21664;BME280;10993;52.510;13.456;2023-11-21T15:05:36;66183.59;;;-146.93;95.66
21664;BME280;10993;52.510;13.456;2023-11-21T15:10:40;64953.38;;;-146.93;95.07
21664;BME280;10993;52.510;13.456;2023-11-21T15:15:49;64030.00;;;-146.93;94.53
21664;BME280;10993;52.510;13.456;2023-11-21T15:20:49;64742.28;;;-146.93;94.90
21664;BME280;10993;52.510;13.456;2023-11-21T15:25:49;62603.81;;;-146.93;93.55
21664;BME280;10993;52.510;13.456;2023-11-21T15:30:51;61447.88;;;-146.93;92.60
21664;BME280;10993;52.510;13.456;2023-11-21T15:35:52;61200.50;;;-146.93;92.36
21664;BME280;10993;52.510;13.456;2023-11-21T15:40:52;60837.63;;;-146.93;91.97
21664;BME280;10993;52.510;13.456;2023-11-21T15:45:54;60351.09;;;-146.93;91.24
21664;BME280;10993;52.510;13.456;2023-11-21T15:50:55;59659.97;;;-146.93;90.05
21664;BME280;10993;52.510;13.456;2023-11-21T15:55:58;59619.47;;;-146.93;90.16
21664;BME280;10993;52.510;13.456;2023-11-21T16:00:59;59615.41;;;-146.93;90.01
21664;BME280;10993;52.510;13.456;2023-11-21T16:06:00;58969.00;;;-146.93;88.79
21664;BME280;10993;52.510;13.456;2023-11-21T16:11:00;59206.06;;;-146.93;88.91
21664;BME280;10993;52.510;13.456;2023-11-21T16:16:02;58756.28;;;-146.93;87.52
21664;BME280;10993;52.510;13.456;2023-11-21T16:21:02;58438.19;;;-146.93;86.73
21664;BME280;10993;52.510;13.456;2023-11-21T16:26:03;58426.03;;;-146.93;86.49
21664;BME280;10993;52.510;13.456;2023-11-21T16:31:06;58529.38;;;-146.93;87.09
21664;BME280;10993;52.510;13.456;2023-11-21T16:36:07;58361.22;;;-146.93;86.01
21664;BME280;10993;52.510;13.456;2023-11-21T16:41:07;57755.56;;;-146.93;82.71
21664;BME280;10993;52.510;13.456;2023-11-21T16:46:11;57796.09;;;-146.93;83.05
21664;BME280;10993;52.510;13.456;2023-11-21T16:51:16;57816.34;;;-146.93;83.09
21664;BME280;10993;52.510;13.456;2023-11-21T16:56:17;57702.91;;;-146.93;82.39
21664;BME280;10993;52.510;13.456;2023-11-21T17:01:18;57743.41;;;-146.93;83.12
21664;BME280;10993;52.510;13.456;2023-11-21T17:06:19;57743.41;;;-146.93;83.71
21664;BME280;10993;52.510;13.456;2023-11-21T17:11:20;57787.97;;;-146.93;83.25
21664;BME280;10993;52.510;13.456;2023-11-21T17:16:22;57820.38;;;-146.93;83.26
21664;BME280;10993;52.510;13.456;2023-11-21T17:21:24;57757.59;;;-146.93;83.78
21664;BME280;10993;52.510;13.456;2023-11-21T17:26:24;57852.78;;;-146.93;83.60
21664;BME280;10993;52.510;13.456;2023-11-21T17:31:26;57731.25;;;-146.93;82.35
21664;BME280;10993;52.510;13.456;2023-11-21T17:36:26;57528.72;;;-146.93;81.74
21664;BME280;10993;52.510;13.456;2023-11-21T17:41:27;57700.88;;;-146.93;82.55
21664;BME280;10993;52.510;13.456;2023-11-21T17:46:29;57678.59;;;-146.93;82.11
21664;BME280;10993;52.510;13.456;2023-11-21T17:51:30;57589.50;;;-146.93;81.65
21664;BME280;10993;52.510;13.456;2023-11-21T17:56:30;57666.44;;;-146.93;82.08
21664;BME280;10993;52.510;13.456;2023-11-21T18:01:36;57567.22;;;-146.93;80.93
21664;BME280;10993;52.510;13.456;2023-11-21T18:06:37;57526.72;;;-146.93;80.58
21664;BME280;10993;52.510;13.456;2023-11-21T18:11:37;57551.00;;;-146.93;80.63
21664;BME280;10993;52.510;13.456;2023-11-21T18:16:40;57358.63;;;-146.93;80.68
21664;BME280;10993;52.510;13.456;2023-11-21T18:21:42;57581.38;;;-146.93;82.02
21664;BME280;10993;52.510;13.456;2023-11-21T18:26:42;57792.03;;;-146.93;82.95
21664;BME280;10993;52.510;13.456;2023-11-21T18:31:45;57613.78;;;-146.93;81.24
21664;BME280;10993;52.510;13.456;2023-11-21T18:36:46;57794.06;;;-146.93;82.81
21664;BME280;10993;52.510;13.456;2023-11-21T18:41:46;57522.66;;;-146.93;80.57
21664;BME280;10993;52.510;13.456;2023-11-21T18:46:54;57583.41;;;-146.93;81.53
21664;BME280;10993;52.510;13.456;2023-11-21T18:51:55;57581.38;;;-146.93;81.74
21664;BME280;10993;52.510;13.456;2023-11-21T18:56:56;57549.00;;;-146.93;80.75
21664;BME280;10993;52.510;13.456;2023-11-21T19:01:59;57368.75;;;-146.93;80.83
21664;BME280;10993;52.510;13.456;2023-11-21T19:06:59;57472.03;;;-146.93;79.90
21664;BME280;10993;52.510;13.456;2023-11-21T19:12:02;57445.69;;;-146.93;80.16
21664;BME280;10993;52.510;13.456;2023-11-21T19:17:04;57338.38;;;-146.93;80.14
21664;BME280;10993;52.510;13.456;2023-11-21T19:22:05;57480.13;;;-146.93;79.76
21664;BME280;10993;52.510;13.456;2023-11-21T19:27:05;57399.13;;;-146.93;79.14
21664;BME280;10993;52.510;13.456;2023-11-21T19:32:07;57370.75;;;-146.93;79.18
21664;BME280;10993;52.510;13.456;2023-11-21T19:37:07;57405.19;;;-146.93;79.14
21664;BME280;10993;52.510;13.456;2023-11-21T19:42:08;57504.44;;;-146.93;80.40
21664;BME280;10993;52.510;13.456;2023-11-21T19:47:09;57413.28;;;-146.93;79.22
21664;BME280;10993;52.510;13.456;2023-11-21T19:52:10;57348.50;;;-146.93;78.09
21664;BME280;10993;52.510;13.456;2023-11-21T19:57:11;57277.59;;;-146.93;78.33
21664;BME280;10993;52.510;13.456;2023-11-21T20:02:15;57391.00;;;-146.93;79.13
21664;BME280;10993;52.510;13.456;2023-11-21T20:07:16;57344.44;;;-146.93;79.72
21664;BME280;10993;52.510;13.456;2023-11-21T20:12:21;57482.16;;;-146.93;80.20
21664;BME280;10993;52.510;13.456;2023-11-21T20:17:23;57508.47;;;-146.93;80.88
21664;BME280;10993;52.510;13.456;2023-11-21T20:22:24;57617.84;;;-146.93;80.84
21664;BME280;10993;52.510;13.456;2023-11-21T20:27:24;57540.88;;;-146.93;81.25
21664;BME280;10993;52.510;13.456;2023-11-21T20:32:26;57544.94;;;-146.93;81.14
21664;BME280;10993;52.510;13.456;2023-11-21T20:37:26;57563.16;;;-146.93;81.73
21664;BME280;10993;52.510;13.456;2023-11-21T20:42:27;57662.41;;;-146.93;82.71
21664;BME280;10993;52.510;13.456;2023-11-21T20:47:33;57688.72;;;-146.93;82.87
21664;BME280;10993;52.510;13.456;2023-11-21T20:52:33;57549.00;;;-146.93;82.98
21664;BME280;10993;52.510;13.456;2023-11-21T20:57:34;57686.72;;;-146.93;83.14
21664;BME280;10993;52.510;13.456;2023-11-21T21:02:36;57650.25;;;-146.93;82.24
21664;BME280;10993;52.510;13.456;2023-11-21T21:07:36;57670.50;;;-146.93;82.71
21664;BME280;10993;52.510;13.456;2023-11-21T21:12:36;57648.22;;;-146.93;82.96
21664;BME280;10993;52.510;13.456;2023-11-21T21:17:39;57597.59;;;-146.93;82.51
21664;BME280;10993;52.510;13.456;2023-11-21T21:22:40;57775.81;;;-146.93;83.79
21664;BME280;10993;52.510;13.456;2023-11-21T21:27:42;57743.41;;;-146.93;83.55
21664;BME280;10993;52.510;13.456;2023-11-21T21:32:44;57796.09;;;-146.93;83.63
21664;BME280;10993;52.510;13.456;2023-11-21T21:37:44;57767.72;;;-146.93;84.30
21664;BME280;10993;52.510;13.456;2023-11-21T21:42:44;57836.59;;;-146.93;84.02
21664;BME280;10993;52.510;13.456;2023-11-21T21:47:48;57715.06;;;-146.93;83.85
21664;BME280;10993;52.510;13.456;2023-11-21T21:52:49;57591.50;;;-146.93;84.29
21664;BME280;10993;52.510;13.456;2023-11-21T21:57:49;57889.25;;;-146.93;84.76
21664;BME280;10993;52.510;13.456;2023-11-21T22:02:51;58340.97;;;-146.93;85.01
21664;BME280;10993;52.510;13.456;2023-11-21T22:07:51;57777.84;;;-146.93;84.73
21664;BME280;10993;52.510;13.456;2023-11-21T22:12:51;57881.16;;;-146.93;84.74
21664;BME280;10993;52.510;13.456;2023-11-21T22:17:54;57885.19;;;-146.93;85.55
21664;BME280;10993;52.510;13.456;2023-11-21T22:22:55;57919.63;;;-146.93;85.88
21664;BME280;10993;52.510;13.456;2023-11-21T22:27:55;58081.69;;;-146.93;86.77
21664;BME280;10993;52.510;13.456;2023-11-21T22:32:57;58176.88;;;-146.93;87.02
21664;BME280;10993;52.510;13.456;2023-11-21T22:37:58;58195.13;;;-146.93;86.67
21664;BME280;10993;52.510;13.456;2023-11-21T22:42:59;58065.47;;;-146.93;86.67
21664;BME280;10993;52.510;13.456;2023-11-21T22:48:01;58243.72;;;-146.93;87.08
21664;BME280;10993;52.510;13.456;2023-11-21T22:53:01;58225.50;;;-146.93;87.04
21664;BME280;10993;52.510;13.456;2023-11-21T22:58:02;58089.78;;;-146.93;86.08
21664;BME280;10993;52.510;13.456;2023-11-21T23:03:03;58363.25;;;-146.93;87.38
21664;BME280;10993;52.510;13.456;2023-11-21T23:08:05;57889.25;;;-146.93;84.96
21664;BME280;10993;52.510;13.456;2023-11-21T23:13:06;57820.38;;;-146.93;84.48
21664;BME280;10993;52.510;13.456;2023-11-21T23:18:09;57810.25;;;-146.93;84.69
21664;BME280;10993;52.510;13.456;2023-11-21T23:23:10;57745.44;;;-146.93;84.66
21664;BME280;10993;52.510;13.456;2023-11-21T23:28:11;57889.25;;;-146.93;84.80
21664;BME280;10993;52.510;13.456;2023-11-21T23:33:12;57820.38;;;-146.93;84.45
21664;BME280;10993;52.510;13.456;2023-11-21T23:38:13;57875.06;;;-146.93;84.88
21664;BME280;10993;52.510;13.456;2023-11-21T23:43:13;57891.28;;;-146.93;84.92
21664;BME280;10993;52.510;13.456;2023-11-21T23:48:15;57816.34;;;-146.93;84.19
21664;BME280;10993;52.510;13.456;2023-11-21T23:53:15;57771.78;;;-146.93;83.55
21664;BME280;10993;52.510;13.456;2023-11-21T23:58:16;57700.88;;;-146.93;83.51
